Time;durP1;ratioP1;P1;durP2;ratioP2;P2;SDS_P1;SDS_P2;PMS_P1;PMS_P2;Temp;Humidity;BMP_temperature;BMP_pressure;BME280_temperature;BME280_humidity;BME280_pressure;Samples;Min_cycle;Max_cycle;Signal;HPM_P1;HPM_P2
2022/02/26 00:00:23;;;;;;;53.05;38.38;;;19.10;96.90;;;;;;4190357;28;20564;-62
2022/02/26 00:02:47;;;;;;;58.75;39.15;;;19.10;96.90;;;;;;4189408;28;20067;-62
2022/02/26 00:05:12;;;;;;;54.75;38.22;;;19.10;97.00;;;;;;4166604;28;20037;-63
2022/02/26 00:07:40;;;;;;;59.42;38.85;;;19.20;96.70;;;;;;4164364;28;20048;-62
2022/02/26 00:10:05;;;;;;;50.67;36.83;;;19.20;96.90;;;;;;4164738;28;20053;-65
2022/02/26 00:12:29;;;;;;;53.05;37.13;;;19.40;96.60;;;;;;4165143;28;20041;-62
2022/02/26 00:14:58;;;;;;;49.10;34.50;;;19.40;96.40;;;;;;4165537;28;20207;-63
2022/02/26 00:17:22;;;;;;;48.95;33.83;;;19.50;96.40;;;;;;4148874;28;20637;-62
2022/02/26 00:19:46;;;;;;;45.83;32.83;;;19.50;96.40;;;;;;4164058;28;20049;-62
2022/02/26 00:22:15;;;;;;;41.58;31.42;;;19.50;96.30;;;;;;4163732;28;20045;-62
2022/02/26 00:24:39;;;;;;;48.78;33.10;;;19.40;96.20;;;;;;4162117;28;20087;-62
2022/02/26 00:27:03;;;;;;;49.13;34.17;;;19.60;96.10;;;;;;4189441;28;20090;-60
2022/02/26 00:29:34;;;;;;;48.30;33.60;;;19.60;96.10;;;;;;4148231;28;20053;-60
2022/02/26 00:31:58;;;;;;;49.80;33.15;;;19.60;96.10;;;;;;4162998;28;20076;-62
2022/02/26 00:34:28;;;;;;;50.97;35.30;;;19.70;96.00;;;;;;4166946;28;20111;-62
2022/02/26 00:36:55;;;;;;;49.58;35.83;;;19.60;96.20;;;;;;4161371;28;20045;-61
2022/02/26 00:39:19;;;;;;;54.85;37.30;;;19.70;96.00;;;;;;4190875;28;20044;-62
2022/02/26 00:41:43;;;;;;;51.03;35.83;;;19.60;96.20;;;;;;4163788;28;20136;-62
2022/02/26 00:44:11;;;;;;;52.00;35.13;;;19.80;96.20;;;;;;4161263;28;20057;-62
2022/02/26 00:46:37;;;;;;;51.67;36.47;;;19.60;96.10;;;;;;4160042;28;20069;-62
2022/02/26 00:51:38;;;;;;;52.55;36.33;;;19.70;96.10;;;;;;4161982;28;20135;-62
2022/02/26 00:54:02;;;;;;;50.38;36.40;;;19.80;95.90;;;;;;4164219;28;20053;-62
2022/02/26 00:56:22;;;;;;;52.10;35.05;;;19.70;96.10;;;;;;4161045;28;20082;-62
2022/02/26 00:58:53;;;;;;;49.85;33.10;;;19.80;96.00;;;;;;4162317;28;20046;-62
2022/02/26 01:01:01;;;;;;;54.15;33.53;;;19.90;96.10;;;;;;4160652;28;20132;-62
2022/02/26 01:03:18;;;;;;;48.67;31.50;;;20.00;95.70;;;;;;4160368;28;20062;-62
2022/02/26 01:05:29;;;;;;;46.10;31.30;;;20.00;95.40;;;;;;4161088;28;20120;-62
2022/02/26 01:07:34;;;;;;;45.90;30.80;;;20.10;95.40;;;;;;4161375;28;20037;-61
2022/02/26 01:09:44;;;;;;;44.00;29.77;;;20.30;95.10;;;;;;4160831;28;20136;-62
2022/02/26 01:11:55;;;;;;;40.97;28.83;;;20.40;94.90;;;;;;4162695;28;20055;-62
2022/02/26 01:14:08;;;;;;;44.28;29.13;;;20.50;94.50;;;;;;4166174;28;20728;-62
2022/02/26 01:16:15;;;;;;;40.70;29.45;;;20.30;94.70;;;;;;4162127;28;20099;-62
2022/02/26 01:18:32;;;;;;;39.97;29.88;;;20.40;94.90;;;;;;4164064;28;20116;-61
2022/02/26 01:20:41;;;;;;;36.15;26.52;;;20.30;95.10;;;;;;4161808;28;20103;-62
2022/02/26 01:22:48;;;;;;;34.85;26.02;;;20.30;94.50;;;;;;4157499;28;20605;-61
2022/02/26 01:25:05;;;;;;;36.90;26.00;;;20.30;94.90;;;;;;4160850;28;20046;-61
2022/02/26 01:27:11;;;;;;;29.98;23.15;;;20.40;94.70;;;;;;4166450;28;20036;-62
2022/02/26 01:29:27;;;;;;;32.78;23.33;;;20.30;94.50;;;;;;4165045;28;20403;-61
2022/02/26 01:31:55;;;;;;;34.38;25.08;;;20.20;94.70;;;;;;4161781;28;20620;-62
2022/02/26 01:34:20;;;;;;;34.03;25.35;;;20.30;94.80;;;;;;4161590;28;20610;-62
2022/02/26 01:36:42;;;;;;;32.80;25.23;;;20.40;94.30;;;;;;4155743;28;20594;-62
2022/02/26 01:38:53;;;;;;;35.15;24.98;;;20.50;94.40;;;;;;4151145;28;20069;-61
2022/02/26 01:41:07;;;;;;;37.05;24.67;;;20.50;94.40;;;;;;4157803;28;20045;-61
2022/02/26 01:43:25;;;;;;;35.40;26.45;;;20.50;94.30;;;;;;4157624;28;20056;-62
2022/02/26 01:45:52;;;;;;;34.97;24.90;;;20.40;94.70;;;;;;4159311;28;20381;-62
2022/02/26 01:47:59;;;;;;;38.22;26.20;;;20.40;94.70;;;;;;4165838;28;20049;-61
2022/02/26 01:50:05;;;;;;;39.95;26.38;;;20.60;94.60;;;;;;4160773;28;20140;-61
2022/02/26 01:52:13;;;;;;;40.20;25.02;;;20.70;94.50;;;;;;4159251;28;20038;-62
2022/02/26 01:54:19;;;;;;;36.05;25.80;;;20.70;94.30;;;;;;4160102;28;20076;-62
2022/02/26 01:56:25;;;;;;;40.85;24.33;;;20.60;94.20;;;;;;4161602;28;20049;-62
2022/02/26 01:58:30;;;;;;;38.90;25.95;;;20.70;94.30;;;;;;4161383;28;20045;-62
2022/02/26 02:00:36;;;;;;;37.13;25.08;;;20.90;94.10;;;;;;4160307;28;20043;-62
2022/02/26 02:02:45;;;;;;;35.33;23.38;;;21.00;93.80;;;;;;4162222;28;20054;-62
2022/02/26 02:04:54;;;;;;;32.03;22.83;;;20.90;93.60;;;;;;4162554;28;20132;-61
2022/02/26 02:06:58;;;;;;;34.90;23.88;;;20.90;93.70;;;;;;4161258;28;20302;-61
2022/02/26 02:09:02;;;;;;;34.05;23.00;;;20.80;94.10;;;;;;4161014;28;20124;-62
2022/02/26 02:11:10;;;;;;;30.42;22.55;;;20.90;93.90;;;;;;4161488;28;20053;-62
2022/02/26 02:13:14;;;;;;;33.00;23.00;;;21.00;94.00;;;;;;4162703;28;20412;-62
2022/02/26 02:15:32;;;;;;;43.88;23.73;;;21.10;94.00;;;;;;4158459;28;20099;-62
2022/02/26 02:17:43;;;;;;;31.95;22.17;;;21.20;93.60;;;;;;4159798;28;20053;-60
2022/02/26 02:19:49;;;;;;;33.05;21.83;;;21.30;93.70;;;;;;4156215;28;20052;-61
2022/02/26 02:21:54;;;;;;;28.92;20.85;;;21.40;93.40;;;;;;4160739;28;20076;-62
2022/02/26 02:24:00;;;;;;;31.13;21.77;;;21.50;93.30;;;;;;4154877;28;20037;-62
2022/02/26 02:26:05;;;;;;;28.70;20.52;;;21.50;93.50;;;;;;4161432;28;20087;-62
2022/02/26 02:28:10;;;;;;;27.08;19.73;;;21.50;93.60;;;;;;4156994;28;20033;-63
2022/02/26 02:30:17;;;;;;;26.05;19.83;;;21.60;93.10;;;;;;4162476;28;20052;-64
2022/02/26 02:32:21;;;;;;;29.70;19.80;;;21.60;93.10;;;;;;4162764;28;20050;-63
2022/02/26 02:34:26;;;;;;;26.27;20.38;;;21.60;93.20;;;;;;4154914;28;20046;-63
2022/02/26 02:36:43;;;;;;;26.75;19.10;;;21.60;93.00;;;;;;4155091;28;20033;-64
2022/02/26 02:38:49;;;;;;;28.40;18.88;;;21.70;92.90;;;;;;4158088;28;20081;-63
2022/02/26 02:40:55;;;;;;;29.52;19.88;;;21.80;92.70;;;;;;4157892;28;20045;-63
2022/02/26 02:43:05;;;;;;;30.95;20.02;;;21.90;92.70;;;;;;4159360;28;20137;-63
2022/02/26 02:45:10;;;;;;;29.85;22.20;;;22.10;92.80;;;;;;4158491;28;20040;-63
2022/02/26 02:47:15;;;;;;;30.70;21.25;;;22.10;92.50;;;;;;4145047;28;20046;-63
2022/02/26 02:49:20;;;;;;;28.98;21.38;;;22.20;92.50;;;;;;4162607;28;20074;-64
2022/02/26 02:51:24;;;;;;;30.38;22.20;;;22.30;92.60;;;;;;4161429;28;20129;-64
2022/02/26 02:53:29;;;;;;;29.92;20.52;;;22.20;92.40;;;;;;4160255;28;20132;-64
2022/02/26 02:55:36;;;;;;;24.10;19.80;;;22.30;92.40;;;;;;4161177;28;20050;-64
2022/02/26 02:57:40;;;;;;;25.50;18.60;;;22.40;92.20;;;;;;4158963;28;20049;-64
2022/02/26 02:59:45;;;;;;;24.00;18.15;;;22.30;91.90;;;;;;4161635;28;20151;-64
2022/02/26 03:01:52;;;;;;;23.02;17.83;;;22.30;92.10;;;;;;4160522;28;20037;-64
2022/02/26 03:03:56;;;;;;;23.58;16.92;;;22.50;92.30;;;;;;4162047;28;20041;-65
2022/02/26 03:06:02;;;;;;;27.55;17.25;;;22.50;92.30;;;;;;4161787;28;20063;-64
2022/02/26 03:08:11;;;;;;;25.52;17.73;;;22.50;92.00;;;;;;4162108;28;20045;-65
2022/02/26 03:10:16;;;;;;;24.48;17.08;;;22.50;92.00;;;;;;4161928;28;20038;-64
2022/02/26 03:12:20;;;;;;;20.33;16.02;;;22.60;91.90;;;;;;4162994;28;20069;-65
2022/02/26 03:14:25;;;;;;;24.23;17.65;;;22.40;91.80;;;;;;4165113;28;20117;-64
2022/02/26 03:16:30;;;;;;;25.40;17.52;;;22.50;92.10;;;;;;4165086;28;20045;-64
2022/02/26 03:18:35;;;;;;;24.88;17.05;;;22.60;92.40;;;;;;4165049;28;20681;-64
2022/02/26 03:20:41;;;;;;;25.17;18.80;;;22.80;92.00;;;;;;4164826;28;20076;-64
2022/02/26 03:22:46;;;;;;;26.73;18.77;;;22.80;91.70;;;;;;4158945;28;20045;-64
2022/02/26 03:24:50;;;;;;;23.05;18.13;;;22.90;91.80;;;;;;4162628;28;20056;-65
2022/02/26 03:26:58;;;;;;;26.25;18.50;;;23.00;91.50;;;;;;4162490;28;20049;-65
2022/02/26 03:29:02;;;;;;;23.52;17.27;;;23.10;91.20;;;;;;4165337;28;20065;-64
2022/02/26 03:31:09;;;;;;;21.23;16.90;;;22.80;91.40;;;;;;4163856;28;20088;-64
2022/02/26 03:33:16;;;;;;;25.02;16.80;;;23.00;91.80;;;;;;4165400;28;20073;-64
2022/02/26 03:35:21;;;;;;;18.33;14.90;;;23.10;91.50;;;;;;4165170;28;20388;-64
2022/02/26 03:37:27;;;;;;;21.10;15.27;;;23.20;91.20;;;;;;4163774;28;20119;-63
2022/02/26 03:39:37;;;;;;;20.08;15.27;;;23.20;91.30;;;;;;4165541;28;20053;-64
2022/02/26 03:41:42;;;;;;;22.75;14.63;;;23.20;91.40;;;;;;4165157;28;20054;-63
2022/02/26 03:43:46;;;;;;;20.98;14.68;;;23.10;91.50;;;;;;4164186;28;20081;-64
2022/02/26 03:45:55;;;;;;;20.98;14.55;;;23.20;91.40;;;;;;4163885;28;20045;-64
2022/02/26 03:48:00;;;;;;;18.02;14.27;;;23.20;91.30;;;;;;4163336;28;20108;-63
2022/02/26 03:50:05;;;;;;;23.83;14.07;;;23.30;91.30;;;;;;4164588;28;20033;-64
2022/02/26 03:52:17;;;;;;;19.40;15.00;;;23.40;91.40;;;;;;4164657;28;20412;-64
2022/02/26 03:54:22;;;;;;;20.15;15.35;;;23.50;90.70;;;;;;4164627;28;20053;-64
2022/02/26 03:56:27;;;;;;;17.95;12.63;;;23.40;91.00;;;;;;4163715;28;20083;-64
2022/02/26 03:58:32;;;;;;;17.20;12.80;;;23.50;90.80;;;;;;4163030;28;20073;-64
2022/02/26 04:00:38;;;;;;;19.67;12.68;;;23.60;91.10;;;;;;4162882;28;20041;-64
2022/02/26 04:02:44;;;;;;;15.35;11.57;;;23.70;90.60;;;;;;4163805;28;20045;-64
2022/02/26 04:04:53;;;;;;;17.70;12.52;;;23.70;90.00;;;;;;4163848;28;20495;-64
2022/02/26 04:06:57;;;;;;;13.85;11.38;;;23.80;90.10;;;;;;4159500;28;20537;-64
2022/02/26 04:09:03;;;;;;;15.13;11.65;;;23.80;89.60;;;;;;4161949;28;20059;-62
2022/02/26 04:11:12;;;;;;;15.05;11.27;;;23.90;90.30;;;;;;4162502;28;20064;-63
2022/02/26 04:13:17;;;;;;;17.67;11.02;;;24.00;89.90;;;;;;4157002;28;20061;-64
2022/02/26 04:15:21;;;;;;;15.52;11.07;;;24.00;90.00;;;;;;4164473;28;20084;-63
2022/02/26 04:17:32;;;;;;;16.02;11.90;;;24.00;89.20;;;;;;4162782;28;20057;-63
2022/02/26 04:19:36;;;;;;;14.75;11.65;;;24.00;89.10;;;;;;4164395;28;20049;-64
2022/02/26 04:21:41;;;;;;;14.07;11.20;;;23.90;89.40;;;;;;4163771;28;20440;-64
2022/02/26 04:23:50;;;;;;;14.40;11.30;;;23.90;89.00;;;;;;4164370;28;20041;-64
2022/02/26 04:25:55;;;;;;;14.80;12.10;;;23.90;89.20;;;;;;4161185;28;20470;-64
2022/02/26 04:28:00;;;;;;;17.33;11.80;;;23.90;88.80;;;;;;4163850;28;20042;-64
2022/02/26 04:30:15;;;;;;;18.58;12.75;;;23.90;89.00;;;;;;4164043;28;20041;-64
2022/02/26 04:32:24;;;;;;;17.25;12.10;;;24.00;89.00;;;;;;4154762;28;20037;-63
2022/02/26 04:34:29;;;;;;;15.57;12.07;;;24.10;89.30;;;;;;4156781;28;20045;-63
2022/02/26 04:36:38;;;;;;;16.20;11.55;;;24.20;89.00;;;;;;4163677;28;20045;-63
2022/02/26 04:38:43;;;;;;;19.23;12.93;;;24.30;88.90;;;;;;4163799;28;20041;-64
2022/02/26 04:40:48;;;;;;;16.20;12.05;;;24.40;88.10;;;;;;4163428;28;20584;-63
2022/02/26 04:42:58;;;;;;;17.75;13.25;;;24.50;87.60;;;;;;4163688;28;20049;-63
2022/02/26 04:45:03;;;;;;;20.35;14.43;;;24.40;85.80;;;;;;4162465;28;20519;-64
2022/02/26 04:47:09;;;;;;;18.48;14.10;;;24.40;87.60;;;;;;4162152;28;20045;-63
2022/02/26 04:49:15;;;;;;;18.38;13.65;;;24.50;87.40;;;;;;4162408;28;20452;-63
2022/02/26 04:51:20;;;;;;;19.23;13.65;;;24.60;87.20;;;;;;4162072;28;20151;-64
2022/02/26 04:53:24;;;;;;;17.50;12.95;;;24.60;87.40;;;;;;4162297;28;20049;-64
2022/02/26 04:55:35;;;;;;;17.25;13.23;;;24.80;86.40;;;;;;4161427;28;20562;-64
2022/02/26 04:57:39;;;;;;;14.32;11.63;;;24.80;87.30;;;;;;4162329;28;20049;-64
2022/02/26 04:59:45;;;;;;;16.30;12.43;;;24.80;86.20;;;;;;4160794;28;20111;-64
2022/02/26 05:01:55;;;;;;;16.08;12.88;;;24.70;87.60;;;;;;4162102;28;20124;-64
2022/02/26 05:04:03;;;;;;;19.90;13.95;;;24.80;86.50;;;;;;4163196;28;20115;-63
2022/02/26 05:06:07;;;;;;;18.90;12.65;;;24.80;86.70;;;;;;4162867;28;20045;-64
2022/02/26 05:08:12;;;;;;;20.25;13.75;;;25.00;86.20;;;;;;4162961;28;20128;-63
2022/02/26 05:10:16;;;;;;;18.52;13.73;;;25.00;85.10;;;;;;4162062;28;20041;-64
2022/02/26 05:12:21;;;;;;;21.13;14.00;;;25.00;85.90;;;;;;4162256;28;20471;-64
2022/02/26 05:14:29;;;;;;;16.42;12.18;;;25.00;85.60;;;;;;4161847;28;20052;-63
2022/02/26 05:16:35;;;;;;;20.75;12.65;;;25.10;85.90;;;;;;4161815;28;20400;-64
2022/02/26 05:18:40;;;;;;;17.48;11.85;;;25.10;85.10;;;;;;4160230;28;20053;-65
2022/02/26 05:20:45;;;;;;;16.08;12.52;;;25.10;84.60;;;;;;4158809;28;20037;-64
2022/02/26 05:22:50;;;;;;;16.80;11.77;;;25.00;85.30;;;;;;4160865;28;20509;-64
2022/02/26 05:24:55;;;;;;;16.02;11.80;;;25.10;85.60;;;;;;4162204;28;20064;-65
2022/02/26 05:27:04;;;;;;;16.13;11.40;;;25.10;85.30;;;;;;4156676;28;20045;-65
2022/02/26 05:29:10;;;;;;;17.67;11.82;;;25.10;84.70;;;;;;4161625;28;20072;-65
2022/02/26 05:31:15;;;;;;;15.15;11.45;;;25.20;84.40;;;;;;4161619;28;20588;-64
2022/02/26 05:33:26;;;;;;;16.48;11.30;;;25.20;84.10;;;;;;4160264;28;20100;-65
2022/02/26 05:35:31;;;;;;;14.43;11.23;;;25.30;83.60;;;;;;4161407;28;20037;-65
2022/02/26 05:37:37;;;;;;;16.50;11.93;;;25.30;83.00;;;;;;4159636;28;20419;-62
2022/02/26 05:39:48;;;;;;;13.57;10.55;;;25.30;83.80;;;;;;4161215;28;20443;-64
2022/02/26 05:41:54;;;;;;;17.15;11.40;;;25.30;83.80;;;;;;4161339;28;20053;-65
2022/02/26 05:43:59;;;;;;;15.20;11.48;;;25.40;84.00;;;;;;4161195;28;20828;-64
2022/02/26 05:46:09;;;;;;;14.35;11.00;;;25.40;83.90;;;;;;4159673;28;20077;-65
2022/02/26 05:48:17;;;;;;;15.10;11.25;;;25.50;83.90;;;;;;4160189;28;20393;-64
2022/02/26 05:50:22;;;;;;;17.08;11.35;;;25.60;84.50;;;;;;4162215;28;20745;-64
2022/02/26 05:52:30;;;;;;;18.08;11.57;;;25.60;83.20;;;;;;4161898;28;20384;-64
2022/02/26 05:54:36;;;;;;;17.42;11.85;;;25.60;83.00;;;;;;4162394;28;20043;-64
2022/02/26 05:56:42;;;;;;;16.23;11.32;;;25.60;83.10;;;;;;4161820;28;20049;-64
2022/02/26 05:58:53;;;;;;;17.40;11.75;;;25.80;83.50;;;;;;4162127;28;20041;-65
2022/02/26 06:00:58;;;;;;;14.45;10.95;;;26.00;82.10;;;;;;4162038;28;20120;-64
2022/02/26 06:03:03;;;;;;;15.57;12.35;;;25.80;82.80;;;;;;4162353;28;20388;-65
2022/02/26 06:05:14;;;;;;;14.80;11.77;;;25.90;82.70;;;;;;4162395;28;20455;-65
2022/02/26 06:07:21;;;;;;;15.98;11.45;;;26.00;82.30;;;;;;4162015;28;20049;-66
2022/02/26 06:09:27;;;;;;;18.15;12.40;;;25.90;82.10;;;;;;4162163;28;20572;-65
2022/02/26 06:11:34;;;;;;;17.45;12.38;;;26.10;83.20;;;;;;4162151;28;20056;-65
2022/02/26 06:13:38;;;;;;;15.63;11.63;;;26.20;82.20;;;;;;4162176;28;20049;-66
2022/02/26 06:15:43;;;;;;;16.70;11.82;;;26.20;82.30;;;;;;4161629;28;20128;-66
2022/02/26 06:17:50;;;;;;;15.70;12.18;;;26.30;80.80;;;;;;4161929;28;20045;-65
2022/02/26 06:19:56;;;;;;;14.65;11.55;;;26.20;80.40;;;;;;4161891;28;20061;-66
2022/02/26 06:22:02;;;;;;;13.55;11.52;;;26.20;81.20;;;;;;4159511;28;20049;-66
2022/02/26 06:24:07;;;;;;;15.43;11.88;;;26.20;81.70;;;;;;4161980;28;20136;-65
2022/02/26 06:26:14;;;;;;;15.98;12.13;;;26.30;81.70;;;;;;4161935;28;20037;-65
2022/02/26 06:28:19;;;;;;;22.73;11.60;;;26.30;81.50;;;;;;4162049;28;20065;-65
2022/02/26 06:30:26;;;;;;;13.80;11.07;;;26.30;81.30;;;;;;4159724;28;20482;-65
2022/02/26 06:32:32;;;;;;;14.15;11.35;;;26.40;81.30;;;;;;4160453;28;20550;-65
2022/02/26 06:34:37;;;;;;;16.15;12.00;;;26.40;82.70;;;;;;4161777;28;20057;-65
2022/02/26 06:36:42;;;;;;;16.10;12.15;;;26.50;81.00;;;;;;4161527;28;20107;-64
2022/02/26 06:38:47;;;;;;;14.65;11.35;;;26.50;81.10;;;;;;4162582;28;20041;-64
2022/02/26 06:40:53;;;;;;;17.50;11.50;;;26.60;81.40;;;;;;4161982;28;20037;-64
2022/02/26 06:43:01;;;;;;;15.55;11.20;;;26.70;79.50;;;;;;4161911;28;20073;-64
2022/02/26 06:45:06;;;;;;;16.17;11.38;;;26.80;79.70;;;;;;4164217;28;20060;-64
2022/02/26 06:47:14;;;;;;;15.25;11.27;;;26.80;79.30;;;;;;4167016;28;20048;-65
2022/02/26 06:49:24;;;;;;;14.85;12.07;;;26.80;79.40;;;;;;4167295;28;20060;-64
2022/02/26 06:51:30;;;;;;;15.32;11.90;;;26.70;79.10;;;;;;4166963;28;20100;-64
2022/02/26 06:53:35;;;;;;;12.48;11.15;;;26.80;79.20;;;;;;4159419;28;20044;-65
2022/02/26 06:55:45;;;;;;;16.13;12.18;;;26.80;78.10;;;;;;4164927;28;20071;-66
2022/02/26 06:57:53;;;;;;;14.73;11.52;;;26.90;78.40;;;;;;4166513;28;20067;-66
2022/02/26 06:59:58;;;;;;;13.95;11.40;;;27.00;78.70;;;;;;4167247;28;20111;-65
2022/02/26 07:02:10;;;;;;;16.10;11.43;;;27.00;77.90;;;;;;4166956;28;20038;-63
2022/02/26 07:04:16;;;;;;;19.17;11.52;;;26.90;78.10;;;;;;4167651;28;20033;-64
2022/02/26 07:06:31;;;;;;;14.63;12.25;;;27.10;78.10;;;;;;4166992;28;20057;-62
2022/02/26 07:08:40;;;;;;;16.90;11.80;;;27.20;78.40;;;;;;4167199;28;20076;-65
2022/02/26 07:10:45;;;;;;;15.02;11.85;;;27.30;77.80;;;;;;4160944;28;20083;-64
2022/02/26 07:12:51;;;;;;;14.70;11.90;;;27.20;77.90;;;;;;4160095;28;20049;-65
2022/02/26 07:15:00;;;;;;;16.33;11.80;;;27.20;77.60;;;;;;4167659;28;20156;-65
2022/02/26 07:17:05;;;;;;;19.05;12.40;;;27.20;78.60;;;;;;4167333;28;20504;-64
2022/02/26 07:19:10;;;;;;;16.52;11.65;;;27.20;78.80;;;;;;4166204;28;20055;-65
2022/02/26 07:21:19;;;;;;;16.58;11.10;;;27.20;78.90;;;;;;4167238;28;20048;-65
2022/02/26 07:23:24;;;;;;;20.20;11.88;;;27.30;77.70;;;;;;4167336;28;20048;-64
2022/02/26 07:25:29;;;;;;;17.92;12.35;;;27.30;77.30;;;;;;4167710;28;20037;-65
2022/02/26 07:27:37;;;;;;;16.48;11.93;;;27.20;77.10;;;;;;4167075;28;20079;-64
2022/02/26 07:29:43;;;;;;;15.35;12.13;;;27.30;77.90;;;;;;4166800;28;20052;-64
2022/02/26 07:31:49;;;;;;;15.35;11.23;;;27.30;77.90;;;;;;4167133;28;20590;-64
2022/02/26 07:34:01;;;;;;;16.73;11.90;;;27.30;77.20;;;;;;4167539;28;20443;-65
2022/02/26 07:36:09;;;;;;;16.17;11.80;;;27.30;77.50;;;;;;4160818;28;20045;-65
2022/02/26 07:38:15;;;;;;;18.85;12.13;;;27.40;76.50;;;;;;4167273;28;20083;-64
2022/02/26 07:40:24;;;;;;;14.30;11.40;;;27.50;75.80;;;;;;4167412;28;20136;-65
2022/02/26 07:42:29;;;;;;;14.45;11.57;;;27.70;74.90;;;;;;4166869;28;20057;-65
2022/02/26 07:44:34;;;;;;;15.02;12.10;;;27.60;75.40;;;;;;4167009;28;20049;-63
2022/02/26 07:46:44;;;;;;;17.17;11.77;;;27.60;75.90;;;;;;4167115;28;20099;-66
2022/02/26 07:48:49;;;;;;;18.08;11.93;;;27.60;75.00;;;;;;4167164;28;20104;-64
2022/02/26 07:50:54;;;;;;;13.88;10.88;;;27.70;76.00;;;;;;4167233;28;20075;-64
2022/02/26 07:53:03;;;;;;;18.38;11.45;;;27.60;75.60;;;;;;4167119;28;20046;-65
2022/02/26 07:55:08;;;;;;;13.57;10.75;;;27.50;75.40;;;;;;4158439;28;20590;-64
2022/02/26 07:57:17;;;;;;;15.88;11.73;;;27.50;75.00;;;;;;4157531;28;20049;-64
2022/02/26 07:59:25;;;;;;;12.18;10.88;;;27.80;74.80;;;;;;4164531;28;20519;-64
2022/02/26 08:01:31;;;;;;;14.02;11.25;;;27.70;75.40;;;;;;4164520;28;20083;-64
2022/02/26 08:03:35;;;;;;;12.88;10.02;;;27.70;74.60;;;;;;4164169;28;20048;-64
2022/02/26 08:05:43;;;;;;;14.60;10.65;;;27.70;74.50;;;;;;4164753;28;20055;-64
2022/02/26 08:07:48;;;;;;;13.15;9.85;;;28.10;73.60;;;;;;4164302;28;20038;-64
2022/02/26 08:09:53;;;;;;;14.00;10.20;;;28.00;72.70;;;;;;4164460;28;20124;-65
2022/02/26 08:11:59;;;;;;;13.68;10.20;;;27.90;72.00;;;;;;4164350;28;20068;-64
2022/02/26 08:14:04;;;;;;;13.20;9.55;;;27.80;73.00;;;;;;4164728;28;20103;-64
2022/02/26 08:16:10;;;;;;;14.20;10.00;;;27.80;72.30;;;;;;4164412;28;20044;-64
2022/02/26 08:18:19;;;;;;;17.00;9.73;;;27.90;72.30;;;;;;4156578;28;20095;-64
2022/02/26 08:20:24;;;;;;;14.60;9.77;;;28.00;72.00;;;;;;4157068;28;20036;-64
2022/02/26 08:22:30;;;;;;;16.55;9.75;;;27.90;72.60;;;;;;4164047;28;20491;-64
2022/02/26 08:24:40;;;;;;;11.80;9.27;;;28.00;71.50;;;;;;4163075;28;20060;-63
2022/02/26 08:26:45;;;;;;;13.43;9.77;;;28.10;71.60;;;;;;4164635;28;20038;-64
2022/02/26 08:28:50;;;;;;;12.98;9.93;;;28.10;71.20;;;;;;4163040;28;20048;-63
2022/02/26 08:31:00;;;;;;;12.88;8.90;;;28.20;71.80;;;;;;4164161;28;20042;-65
2022/02/26 08:33:05;;;;;;;11.60;9.63;;;28.30;70.90;;;;;;4163603;28;20716;-65
2022/02/26 08:35:11;;;;;;;11.52;8.88;;;28.10;71.30;;;;;;4164050;28;20053;-65
2022/02/26 08:37:20;;;;;;;12.15;9.52;;;28.00;71.10;;;;;;4163913;28;20053;-64
2022/02/26 08:39:25;;;;;;;14.38;9.43;;;28.00;71.00;;;;;;4163945;28;20477;-65
2022/02/26 08:41:30;;;;;;;11.25;9.30;;;28.10;70.20;;;;;;4156277;28;20046;-65
2022/02/26 08:43:39;;;;;;;13.73;10.20;;;28.00;71.20;;;;;;4163699;28;20057;-65
2022/02/26 08:45:44;;;;;;;12.80;9.52;;;28.20;71.30;;;;;;4164172;28;20520;-65
2022/02/26 08:47:49;;;;;;;11.80;8.93;;;28.20;70.00;;;;;;4160609;28;20743;-65
2022/02/26 08:49:53;;;;;;;13.23;9.13;;;28.20;69.90;;;;;;4162135;28;20128;-65
2022/02/26 08:51:58;;;;;;;10.18;8.65;;;28.20;70.10;;;;;;4163393;28;20045;-65
2022/02/26 08:54:07;;;;;;;12.23;9.85;;;28.10;70.60;;;;;;4164017;28;20598;-65
2022/02/26 08:56:13;;;;;;;11.98;9.20;;;28.10;71.20;;;;;;4163501;28;20088;-65
2022/02/26 08:58:18;;;;;;;10.70;8.68;;;28.30;69.50;;;;;;4161967;28;20052;-65
2022/02/26 09:00:23;;;;;;;13.60;10.88;;;28.30;69.50;;;;;;4162599;28;20051;-65
2022/02/26 09:02:38;;;;;;;14.98;11.00;;;28.20;69.30;;;;;;4163262;28;20094;-65
2022/02/26 09:04:46;;;;;;;14.27;9.35;;;28.20;69.70;;;;;;4158490;28;20079;-64
2022/02/26 09:06:52;;;;;;;12.25;9.57;;;28.20;70.30;;;;;;4159833;28;20059;-65
2022/02/26 09:08:59;;;;;;;10.90;8.73;;;28.10;70.60;;;;;;4163845;28;20059;-64
2022/02/26 09:11:06;;;;;;;10.93;8.93;;;28.10;70.50;;;;;;4163493;28;20049;-65
2022/02/26 09:13:15;;;;;;;13.80;9.00;;;28.30;70.70;;;;;;4163349;28;20073;-65
2022/02/26 09:15:24;;;;;;;12.32;8.77;;;28.20;70.60;;;;;;4163373;28;20053;-65
2022/02/26 09:17:28;;;;;;;13.57;8.90;;;28.20;70.50;;;;;;4163508;28;20412;-65
2022/02/26 09:19:36;;;;;;;11.55;9.15;;;28.10;70.40;;;;;;4163232;28;20046;-65
2022/02/26 09:21:44;;;;;;;13.27;8.93;;;28.10;70.50;;;;;;4163449;28;20451;-64
2022/02/26 09:23:49;;;;;;;13.00;8.95;;;28.10;70.80;;;;;;4155657;28;20096;-66
2022/02/26 09:25:53;;;;;;;11.05;9.05;;;28.20;70.40;;;;;;4162954;28;20388;-65
2022/02/26 09:28:03;;;;;;;11.10;9.30;;;28.20;70.30;;;;;;4163142;28;20053;-65
2022/02/26 09:30:08;;;;;;;12.93;9.15;;;28.20;69.40;;;;;;4163366;28;20657;-65
2022/02/26 09:32:15;;;;;;;12.85;10.27;;;28.10;70.10;;;;;;4163240;28;20084;-65
2022/02/26 09:34:28;;;;;;;13.35;10.15;;;28.30;70.00;;;;;;4163138;28;20042;-65
2022/02/26 09:36:33;;;;;;;14.85;9.85;;;28.40;70.50;;;;;;4159091;28;20054;-65
2022/02/26 09:38:38;;;;;;;12.63;9.13;;;28.30;70.10;;;;;;4162015;28;20069;-65
2022/02/26 09:40:47;;;;;;;14.98;9.50;;;28.30;68.30;;;;;;4162471;28;20049;-65
2022/02/26 09:42:55;;;;;;;12.65;9.05;;;28.30;69.10;;;;;;4162398;28;20099;-65
2022/02/26 09:44:59;;;;;;;13.82;9.80;;;28.20;69.50;;;;;;4160840;28;20057;-65
2022/02/26 09:47:08;;;;;;;14.77;10.63;;;28.20;69.80;;;;;;4163058;28;20361;-65
2022/02/26 09:49:13;;;;;;;13.55;9.88;;;28.20;69.60;;;;;;4159026;28;20096;-65
2022/02/26 09:51:18;;;;;;;13.02;9.93;;;28.20;69.30;;;;;;4161955;28;20038;-64
2022/02/26 09:53:27;;;;;;;15.68;10.18;;;28.10;69.80;;;;;;4160896;28;20041;-64
2022/02/26 09:55:32;;;;;;;16.35;11.63;;;28.30;68.70;;;;;;4161400;28;20033;-64
2022/02/26 09:57:36;;;;;;;16.65;11.30;;;28.30;69.40;;;;;;4162897;28;20484;-65
2022/02/26 09:59:48;;;;;;;12.02;10.25;;;28.20;69.50;;;;;;4162482;28;20164;-64
2022/02/26 10:02:07;;;;;;;13.48;10.30;;;28.20;69.00;;;;;;4161529;28;20068;-64
2022/02/26 10:04:14;;;;;;;15.30;10.25;;;28.30;69.10;;;;;;4156270;28;20069;-66
2022/02/26 10:06:22;;;;;;;13.57;9.98;;;28.20;70.10;;;;;;4162171;28;20053;-65
2022/02/26 10:08:27;;;;;;;11.48;10.13;;;28.10;70.50;;;;;;4162353;28;20116;-65
2022/02/26 10:10:33;;;;;;;15.23;10.38;;;28.00;70.80;;;;;;4145131;28;20504;-65
2022/02/26 10:12:40;;;;;;;13.32;10.95;;;28.10;71.30;;;;;;4162617;28;20050;-65
2022/02/26 10:14:45;;;;;;;18.17;10.43;;;28.00;70.80;;;;;;4162708;28;20048;-63
2022/02/26 10:16:55;;;;;;;16.27;11.18;;;28.00;70.90;;;;;;4162525;28;20065;-65
2022/02/26 10:19:02;;;;;;;16.75;11.48;;;28.00;69.60;;;;;;4162339;28;20037;-64
2022/02/26 10:21:08;;;;;;;15.20;10.80;;;28.00;69.40;;;;;;4162366;28;20034;-64
2022/02/26 10:23:15;;;;;;;17.40;10.95;;;28.10;69.40;;;;;;4162515;28;20159;-64
2022/02/26 10:25:30;;;;;;;19.55;14.98;;;28.10;69.00;;;;;;4162157;28;20042;-64
2022/02/26 10:27:42;;;;;;;89.15;48.08;;;28.10;69.30;;;;;;4155363;28;20048;-64
2022/02/26 10:29:52;;;;;;;77.78;45.25;;;28.00;69.40;;;;;;4162213;28;20049;-64
2022/02/26 10:31:58;;;;;;;31.13;18.40;;;28.00;69.40;;;;;;4162314;28;20092;-64
2022/02/26 10:34:03;;;;;;;19.45;13.18;;;28.00;69.80;;;;;;4161200;28;20041;-64
2022/02/26 10:36:11;;;;;;;19.02;12.95;;;27.90;69.00;;;;;;4160778;28;20139;-64
2022/02/26 10:38:30;;;;;;;20.27;14.55;;;28.00;69.80;;;;;;4161997;28;20099;-66
2022/02/26 10:41:12;;;;;;;22.98;14.50;;;27.80;70.20;;;;;;4161978;28;20400;-64
2022/02/26 10:43:38;;;;;;;18.97;12.50;;;27.70;70.80;;;;;;4158594;28;20396;-64
2022/02/26 10:45:41;;;;;;;;;;;27.70;71.50;;;;;;4162590;28;20650;-64
2022/02/26 10:47:46;;;;;;;18.85;13.52;;;27.70;72.30;;;;;;4162276;28;19964;-63
2022/02/26 10:49:55;;;;;;;16.38;12.90;;;27.60;72.30;;;;;;4154565;28;20124;-64
2022/02/26 10:52:09;;;;;;;18.55;12.63;;;27.50;73.30;;;;;;4155478;28;20049;-64
2022/02/26 10:54:25;;;;;;;18.90;12.73;;;27.50;73.50;;;;;;4161686;28;20057;-63
2022/02/26 10:56:41;;;;;;;22.13;13.25;;;27.50;75.00;;;;;;4160731;28;20076;-64